ADDS METAR Data INFO
IDs: Format: Raw Decoded Include TAF

Data at: 1750 UTC 21 Oct 2017

KGWW 211725Z AUTO 00000KT 10SM CLR 25/12 A3032 RMK AO2 T02500123
KGWW 211705Z AUTO 14005KT 10SM CLR 25/11 A3033 RMK AO2 T02460114
KGWW 211645Z AUTO 00000KT 10SM CLR 24/12 A3033 RMK AO2 T02410122
KGWW 211625Z AUTO 00000KT 10SM CLR 24/13 A3033 RMK AO2 T02400130
KGWW 211605Z AUTO 00000KT 10SM CLR 23/14 A3033 RMK AO2 T02340137
KGWW 211545Z AUTO 00000KT 10SM CLR 23/14 A3034 RMK AO2 T02300143
KGWW 211525Z AUTO 00000KT 10SM CLR 22/15 A3034 RMK AO2 T02190151
KGWW 211505Z AUTO 00000KT 10SM CLR 21/15 A3034 RMK AO2 T02060154
KGWW 211445Z AUTO 00000KT 10SM CLR 19/16 A3034 RMK AO2 T01920155
KGWW 211425Z AUTO 00000KT 10SM CLR 18/15 A3035 RMK AO2 T01820150
KGWW 211405Z AUTO 00000KT 10SM CLR 17/15 A3034 RMK AO2 T01690148
KGWW 211345Z AUTO 00000KT 10SM CLR 16/14 A3034 RMK AO2 T01560142
KGWW 211325Z AUTO 00000KT 10SM CLR 15/14 A3034 RMK AO2 T01450137
KGWW 211305Z AUTO 00000KT 10SM CLR 13/13 A3033 RMK AO2 T01320130
KGWW 211245Z AUTO 00000KT 10SM CLR 12/12 A3032 RMK AO2 T01150115
KGWW 211225Z AUTO 00000KT 5SM BR CLR 10/10 A3032 RMK AO2 T00970097
KGWW 211205Z AUTO 00000KT 4SM BR CLR 09/09 A3031 RMK AO2 T00850085
KGWW 211145Z AUTO 00000KT 3SM BR CLR 08/08 A3031 RMK AO2 T00830083
KGWW 211125Z AUTO 00000KT 4SM BR CLR 08/08 A3030 RMK AO2 T00840084
KGWW 211105Z AUTO 00000KT 7SM CLR 08/08 A3029 RMK AO2 T00780078
KGWW 211045Z AUTO 00000KT 7SM CLR 08/08 A3029 RMK AO2 T00820082
KGWW 211025Z AUTO 00000KT 7SM CLR 09/09 A3028 RMK AO2 T00860086
KGWW 211005Z AUTO 00000KT 7SM CLR 09/09 A3027 RMK AO2 T00860086
KGWW 210945Z AUTO 00000KT 7SM CLR 09/09 A3027 RMK AO2 T00860086
KGWW 210925Z AUTO 00000KT 7SM CLR 09/09 A3026 RMK AO2 T00860086
KGWW 210905Z AUTO 00000KT 7SM CLR 09/09 A3025 RMK AO2 T00860086
KGWW 210845Z AUTO 00000KT 7SM CLR 09/09 A3025 RMK AO2 T00850085
KGWW 210825Z AUTO 00000KT 4SM BR CLR 09/09 A3025 RMK AO2 T00900090
KGWW 210805Z AUTO 00000KT 4SM BR CLR 09/09 A3024 RMK AO2 T00860086
KGWW 210745Z AUTO 00000KT 10SM CLR 09/09 A3024 RMK AO2 T00910091
KGWW 210725Z AUTO 00000KT 3SM BR CLR 09/09 A3025 RMK AO2 T00910091
KGWW 210705Z AUTO 00000KT 3SM BR CLR 09/09 A3025 RMK AO2 T00870087
KGWW 210645Z AUTO 00000KT 4SM BR CLR 10/10 A3026 RMK AO2 T01000100
KGWW 210625Z AUTO 00000KT 4SM BR CLR 10/10 A3026 RMK AO2 T00980098
KGWW 210605Z AUTO 00000KT 5SM BR CLR 10/10 A3026 RMK AO2 T01000100
KGWW 210545Z AUTO 00000KT 7SM CLR 10/10 A3026 RMK AO2 T01030103
KGWW 210525Z AUTO 00000KT 7SM CLR 10/10 A3026 RMK AO2 T01010101
KGWW 210505Z AUTO 00000KT 10SM CLR 11/11 A3026 RMK AO2 T01060106
KGWW 210445Z AUTO 00000KT 10SM CLR 11/11 A3026 RMK AO2 T01060106
KGWW 210425Z AUTO 00000KT 7SM CLR 11/11 A3026 RMK AO2 T01100110
KGWW 210405Z AUTO 00000KT 10SM CLR 11/11 A3026 RMK AO2 T01050105
KGWW 210345Z AUTO 00000KT 10SM CLR 11/11 A3025 RMK AO2 T01140114
KGWW 210325Z AUTO 00000KT 10SM CLR 11/11 A3025 RMK AO2 T01100110
KGWW 210305Z AUTO 00000KT 10SM CLR 11/11 A3024 RMK AO2 T01140114
KGWW 210245Z AUTO 00000KT 10SM CLR 12/12 A3024 RMK AO2 T01220122
KGWW 210225Z AUTO 00000KT 10SM CLR 12/12 A3024 RMK AO2 T01210121
KGWW 210205Z AUTO 00000KT 10SM CLR 12/12 A3023 RMK AO2 T01230123
KGWW 210145Z AUTO 00000KT 10SM CLR 13/13 A3023 RMK AO2 T01250125
KGWW 210125Z AUTO 00000KT 10SM CLR 13/13 A3022 RMK AO2 T01330133
KGWW 210105Z AUTO 00000KT 10SM CLR 13/13 A3022 RMK AO2 T01290129
KGWW 210045Z AUTO 00000KT 10SM CLR 13/13 A3022 RMK AO2 T01330130
KGWW 210025Z AUTO 00000KT 10SM CLR 14/13 A3022 RMK AO2 T01350127
KGWW 210005Z AUTO 00000KT 10SM CLR 14/13 A3022 RMK AO2 T01420130
KGWW 202345Z AUTO 00000KT 10SM CLR 15/13 A3021 RMK AO2 T01480132
KGWW 202325Z AUTO 00000KT 10SM CLR 15/13 A3021 RMK AO2 T01540134
KGWW 202305Z AUTO 00000KT 10SM CLR 16/14 A3020 RMK AO2 T01630136
KGWW 202245Z AUTO 00000KT 10SM CLR 18/13 A3020 RMK AO2 T01750131
KGWW 202225Z AUTO 00000KT 10SM CLR 19/14 A3019 RMK AO2 T01930135
KGWW 202205Z AUTO 00000KT 10SM CLR 21/13 A3019 RMK AO2 T02090128
KGWW 202145Z AUTO 00000KT 10SM CLR 23/12 A3019 RMK AO2 T02330117
KGWW 202125Z AUTO 00000KT 10SM CLR 24/10 A3018 RMK AO2 T02440101
KGWW 202105Z AUTO 00000KT 10SM CLR 25/09 A3018 RMK AO2 T02460089
KGWW 202045Z AUTO 00000KT 10SM CLR 25/09 A3018 RMK AO2 T02490092
KGWW 202025Z AUTO 00000KT 10SM CLR 25/09 A3018 RMK AO2 T02490089
KGWW 202005Z AUTO 00000KT 10SM CLR 25/09 A3019 RMK AO2 T02510086
KGWW 201945Z AUTO 01003KT 10SM CLR 25/09 A3018 RMK AO2 T02500094
KGWW 201925Z AUTO 00000KT 10SM CLR 25/09 A3019 RMK AO2 T02520087
KGWW 201905Z AUTO 01004KT 10SM CLR 25/09 A3019 RMK AO2 T02500094
KGWW 201845Z AUTO 00000KT 10SM CLR 25/10 A3019 RMK AO2 T02500103
KGWW 201825Z AUTO 01003KT 10SM CLR 25/10 A3020 RMK AO2 T02470096
KGWW 201805Z AUTO 00000KT 10SM CLR 25/11 A3021 RMK AO2 T02450105
KGWW 201745Z AUTO 00000KT 10SM CLR 24/11 A3021 RMK AO2 T02410109
KGWW 201725Z AUTO 00000KT 10SM CLR 24/12 A3022 RMK AO2 T02380118
KGWW 201705Z AUTO 00000KT 10SM CLR 24/12 A3023 RMK AO2 T02350115
KGWW 201645Z AUTO 27003KT 10SM CLR 23/11 A3024 RMK AO2 T02270112
KGWW 201625Z AUTO 31003KT 10SM CLR 23/12 A3024 RMK AO2 T02250118
KGWW 201605Z AUTO 00000KT 10SM CLR 21/11 A3025 RMK AO2 T02120114
KGWW 201545Z AUTO 00000KT 10SM CLR 20/11 A3025 RMK AO2 T02000106
KGWW 201525Z AUTO 00000KT 10SM CLR 20/11 A3025 RMK AO2 T01990112
KGWW 201205Z AUTO 00000KT 10SM CLR 08/08 A3024 RMK AO2 T00780078
KGWW 201145Z AUTO 00000KT 2SM BR CLR 08/08 A3024 RMK AO2 VIS 3/4V5 T00750075
KGWW 201125Z AUTO 00000KT 7SM CLR 08/08 A3023 RMK AO2 T00780078
KGWW 201105Z AUTO 00000KT 10SM CLR 08/08 A3023 RMK AO2 T00780078
KGWW 201045Z AUTO 00000KT 7SM CLR 07/07 A3023 RMK AO2 T00720072
KGWW 201025Z AUTO 00000KT 7SM CLR 08/08 A3022 RMK AO2 T00770077
KGWW 201005Z AUTO 00000KT 10SM CLR 08/08 A3022 RMK AO2 T00770077
KGWW 200945Z AUTO 00000KT 7SM CLR 08/08 A3022 RMK AO2 T00780078
KGWW 200925Z AUTO 00000KT 7SM CLR 08/08 A3021 RMK AO2 T00770077
KGWW 200905Z AUTO 00000KT 10SM CLR 08/08 A3021 RMK AO2 T00780078
KGWW 200845Z AUTO 00000KT 7SM CLR 08/08 A3021 RMK AO2 T00810081
KGWW 200825Z AUTO 00000KT 5SM BR CLR 08/08 A3021 RMK AO2 T00830083
KGWW 200805Z AUTO 00000KT 7SM CLR 08/08 A3021 RMK AO2 T00810081
KGWW 200745Z AUTO 00000KT 10SM CLR 08/08 A3021 RMK AO2 T00780078
KGWW 200725Z AUTO 00000KT 4SM BR CLR 08/08 A3021 RMK AO2 T00810081
KGWW 200705Z AUTO 00000KT 7SM CLR 09/09 A3021 RMK AO2 T00880088
KGWW 200645Z AUTO 00000KT 4SM BR CLR 09/09 A3021 RMK AO2 T00900090
KGWW 200625Z AUTO 00000KT 7SM CLR 10/10 A3021 RMK AO2 T00950095
KGWW 200605Z AUTO 00000KT 2SM BR CLR 09/09 A3021 RMK AO2 T00930093